sensor_id;sensor_type;location;lat;lon;timestamp;P1;durP1;ratioP1;P2;durP2;ratioP2
32788;SDS011;19141;48.980;8.410;2022-11-15T05:22:37;6.20;;;4.07;;
32788;SDS011;19141;48.980;8.410;2022-11-15T05:25:22;8.50;;;3.95;;
32788;SDS011;19141;48.980;8.410;2022-11-15T05:28:05;7.47;;;4.03;;
32788;SDS011;19141;48.980;8.410;2022-11-15T05:30:50;5.40;;;3.92;;
32788;SDS011;19141;48.980;8.410;2022-11-15T05:33:34;5.18;;;3.72;;
32788;SDS011;19141;48.980;8.410;2022-11-15T05:36:37;6.18;;;3.75;;
32788;SDS011;19141;48.980;8.410;2022-11-15T05:39:24;7.78;;;4.28;;
32788;SDS011;19141;48.980;8.410;2022-11-15T05:42:10;8.57;;;4.25;;
32788;SDS011;19141;48.980;8.410;2022-11-15T05:44:56;6.97;;;4.40;;
32788;SDS011;19141;48.980;8.410;2022-11-15T05:47:41;7.78;;;4.00;;
32788;SDS011;19141;48.980;8.410;2022-11-15T05:50:25;8.75;;;4.88;;
32788;SDS011;19141;48.980;8.410;2022-11-15T05:53:10;5.80;;;3.80;;
32788;SDS011;19141;48.980;8.410;2022-11-15T05:55:58;7.28;;;4.75;;
32788;SDS011;19141;48.980;8.410;2022-11-15T05:58:42;8.85;;;4.78;;
32788;SDS011;19141;48.980;8.410;2022-11-15T06:01:26;6.13;;;3.92;;
32788;SDS011;19141;48.980;8.410;2022-11-15T06:04:11;7.03;;;3.35;;
32788;SDS011;19141;48.980;8.410;2022-11-15T06:06:55;6.50;;;3.90;;
32788;SDS011;19141;48.980;8.410;2022-11-15T06:09:39;5.95;;;3.75;;
32788;SDS011;19141;48.980;8.410;2022-11-15T06:12:22;7.10;;;4.15;;
32788;SDS011;19141;48.980;8.410;2022-11-15T06:15:07;8.50;;;5.32;;
32788;SDS011;19141;48.980;8.410;2022-11-15T06:17:51;7.25;;;4.25;;
32788;SDS011;19141;48.980;8.410;2022-11-15T06:20:35;8.38;;;4.25;;
32788;SDS011;19141;48.980;8.410;2022-11-15T06:23:19;7.85;;;4.57;;
32788;SDS011;19141;48.980;8.410;2022-11-15T06:26:03;7.28;;;4.25;;
32788;SDS011;19141;48.980;8.410;2022-11-15T06:28:47;7.45;;;4.45;;
32788;SDS011;19141;48.980;8.410;2022-11-15T06:31:31;8.60;;;4.88;;
32788;SDS011;19141;48.980;8.410;2022-11-15T06:34:16;6.95;;;4.57;;
32788;SDS011;19141;48.980;8.410;2022-11-15T06:37:01;7.20;;;3.95;;
32788;SDS011;19141;48.980;8.410;2022-11-15T06:39:45;5.40;;;3.58;;
32788;SDS011;19141;48.980;8.410;2022-11-15T06:42:29;7.57;;;3.67;;
32788;SDS011;19141;48.980;8.410;2022-11-15T06:45:13;5.20;;;3.53;;
32788;SDS011;19141;48.980;8.410;2022-11-15T06:47:57;9.77;;;4.50;;
32788;SDS011;19141;48.980;8.410;2022-11-15T06:50:41;4.78;;;3.17;;
32788;SDS011;19141;48.980;8.410;2022-11-15T06:53:25;4.80;;;3.35;;
32788;SDS011;19141;48.980;8.410;2022-11-15T06:56:10;8.55;;;3.78;;
32788;SDS011;19141;48.980;8.410;2022-11-15T06:58:54;7.65;;;4.35;;
32788;SDS011;19141;48.980;8.410;2022-11-15T07:01:39;5.45;;;3.92;;
32788;SDS011;19141;48.980;8.410;2022-11-15T07:04:22;6.97;;;3.78;;
32788;SDS011;19141;48.980;8.410;2022-11-15T07:07:06;9.27;;;6.25;;
32788;SDS011;19141;48.980;8.410;2022-11-15T07:09:50;8.77;;;4.90;;
32788;SDS011;19141;48.980;8.410;2022-11-15T07:12:34;9.13;;;4.93;;
32788;SDS011;19141;48.980;8.410;2022-11-15T07:15:19;8.98;;;3.80;;
32788;SDS011;19141;48.980;8.410;2022-11-15T07:18:05;4.45;;;3.47;;
32788;SDS011;19141;48.980;8.410;2022-11-15T07:20:49;6.90;;;4.15;;
32788;SDS011;19141;48.980;8.410;2022-11-15T07:23:32;5.75;;;4.07;;
32788;SDS011;19141;48.980;8.410;2022-11-15T07:26:16;7.65;;;4.18;;
32788;SDS011;19141;48.980;8.410;2022-11-15T07:29:00;7.78;;;4.32;;
32788;SDS011;19141;48.980;8.410;2022-11-15T07:31:44;5.90;;;3.25;;
32788;SDS011;19141;48.980;8.410;2022-11-15T07:34:28;6.07;;;3.70;;
32788;SDS011;19141;48.980;8.410;2022-11-15T07:37:12;7.00;;;4.20;;
32788;SDS011;19141;48.980;8.410;2022-11-15T07:39:56;8.27;;;4.20;;
32788;SDS011;19141;48.980;8.410;2022-11-15T07:42:40;4.50;;;3.35;;
32788;SDS011;19141;48.980;8.410;2022-11-15T07:45:40;4.07;;;3.47;;
32788;SDS011;19141;48.980;8.410;2022-11-15T07:48:27;5.78;;;3.70;;
32788;SDS011;19141;48.980;8.410;2022-11-15T07:51:12;4.03;;;3.00;;
32788;SDS011;19141;48.980;8.410;2022-11-15T07:53:57;4.32;;;2.70;;
32788;SDS011;19141;48.980;8.410;2022-11-15T07:56:41;5.25;;;3.60;;
32788;SDS011;19141;48.980;8.410;2022-11-15T07:59:25;5.68;;;3.15;;
32788;SDS011;19141;48.980;8.410;2022-11-15T08:02:09;5.60;;;3.72;;
32788;SDS011;19141;48.980;8.410;2022-11-15T08:04:53;6.07;;;3.30;;
32788;SDS011;19141;48.980;8.410;2022-11-15T08:07:37;6.85;;;3.22;;
32788;SDS011;19141;48.980;8.410;2022-11-15T08:10:22;5.55;;;3.00;;
32788;SDS011;19141;48.980;8.410;2022-11-15T08:13:07;6.28;;;3.42;;
32788;SDS011;19141;48.980;8.410;2022-11-15T08:15:57;3.92;;;2.90;;
32788;SDS011;19141;48.980;8.410;2022-11-15T08:18:44;5.25;;;2.35;;
32788;SDS011;19141;48.980;8.410;2022-11-15T08:21:28;5.88;;;3.13;;
32788;SDS011;19141;48.980;8.410;2022-11-15T08:24:12;4.03;;;2.67;;
32788;SDS011;19141;48.980;8.410;2022-11-15T08:26:56;4.47;;;3.13;;
32788;SDS011;19141;48.980;8.410;2022-11-15T08:29:41;3.95;;;2.92;;
32788;SDS011;19141;48.980;8.410;2022-11-15T08:32:29;7.75;;;3.65;;
32788;SDS011;19141;48.980;8.410;2022-11-15T08:35:14;8.07;;;3.65;;
32788;SDS011;19141;48.980;8.410;2022-11-15T08:37:59;6.95;;;3.85;;
32788;SDS011;19141;48.980;8.410;2022-11-15T08:40:43;7.10;;;4.10;;
32788;SDS011;19141;48.980;8.410;2022-11-15T08:43:27;5.25;;;3.50;;
32788;SDS011;19141;48.980;8.410;2022-11-15T08:46:11;5.78;;;3.08;;
32788;SDS011;19141;48.980;8.410;2022-11-15T08:48:56;4.50;;;2.97;;
32788;SDS011;19141;48.980;8.410;2022-11-15T08:51:40;3.88;;;2.83;;
32788;SDS011;19141;48.980;8.410;2022-11-15T08:54:24;4.30;;;2.97;;
32788;SDS011;19141;48.980;8.410;2022-11-15T08:57:08;4.25;;;2.40;;
32788;SDS011;19141;48.980;8.410;2022-11-15T08:59:53;4.28;;;2.40;;
32788;SDS011;19141;48.980;8.410;2022-11-15T09:02:37;3.33;;;2.40;;
32788;SDS011;19141;48.980;8.410;2022-11-15T09:05:22;4.95;;;2.63;;
32788;SDS011;19141;48.980;8.410;2022-11-15T09:08:06;5.07;;;2.55;;
32788;SDS011;19141;48.980;8.410;2022-11-15T09:10:50;4.28;;;2.75;;
32788;SDS011;19141;48.980;8.410;2022-11-15T09:13:35;6.18;;;2.40;;
32788;SDS011;19141;48.980;8.410;2022-11-15T09:16:23;5.63;;;3.15;;
32788;SDS011;19141;48.980;8.410;2022-11-15T09:19:07;2.33;;;2.08;;
32788;SDS011;19141;48.980;8.410;2022-11-15T09:21:51;4.45;;;2.92;;
32788;SDS011;19141;48.980;8.410;2022-11-15T09:24:35;3.67;;;2.78;;
32788;SDS011;19141;48.980;8.410;2022-11-15T09:27:19;4.30;;;2.92;;
32788;SDS011;19141;48.980;8.410;2022-11-15T09:30:03;3.13;;;2.17;;
32788;SDS011;19141;48.980;8.410;2022-11-15T09:32:48;4.03;;;2.67;;
32788;SDS011;19141;48.980;8.410;2022-11-15T09:35:32;3.22;;;2.17;;
32788;SDS011;19141;48.980;8.410;2022-11-15T09:38:16;3.95;;;2.88;;
32788;SDS011;19141;48.980;8.410;2022-11-15T09:41:16;5.20;;;2.30;;
32788;SDS011;19141;48.980;8.410;2022-11-15T09:50:43;4.35;;;3.28;;
32788;SDS011;19141;48.980;8.410;2022-11-15T09:53:14;3.60;;;2.72;;
32788;SDS011;19141;48.980;8.410;2022-11-15T09:55:49;3.85;;;2.35;;
32788;SDS011;19141;48.980;8.410;2022-11-15T09:58:29;4.70;;;2.45;;
32788;SDS011;19141;48.980;8.410;2022-11-15T10:01:03;4.65;;;2.58;;
32788;SDS011;19141;48.980;8.410;2022-11-15T10:03:36;4.43;;;2.50;;
32788;SDS011;19141;48.980;8.410;2022-11-15T10:06:08;4.03;;;2.40;;
32788;SDS011;19141;48.980;8.410;2022-11-15T10:09:02;4.00;;;2.50;;
32788;SDS011;19141;48.980;8.410;2022-11-15T10:11:33;4.40;;;1.85;;
32788;SDS011;19141;48.980;8.410;2022-11-15T10:14:02;4.20;;;2.22;;
32788;SDS011;19141;48.980;8.410;2022-11-15T10:16:45;4.32;;;2.25;;
32788;SDS011;19141;48.980;8.410;2022-11-15T10:22:05;3.40;;;2.08;;
32788;SDS011;19141;48.980;8.410;2022-11-15T10:24:45;5.63;;;2.83;;
32788;SDS011;19141;48.980;8.410;2022-11-15T10:27:12;4.72;;;2.70;;
32788;SDS011;19141;48.980;8.410;2022-11-15T10:29:42;5.93;;;2.85;;
32788;SDS011;19141;48.980;8.410;2022-11-15T10:32:13;3.08;;;2.42;;
32788;SDS011;19141;48.980;8.410;2022-11-15T10:34:39;4.32;;;2.70;;
32788;SDS011;19141;48.980;8.410;2022-11-15T10:37:05;5.20;;;2.88;;
32788;SDS011;19141;48.980;8.410;2022-11-15T10:39:31;4.03;;;2.70;;
32788;SDS011;19141;48.980;8.410;2022-11-15T10:41:58;2.88;;;2.28;;
32788;SDS011;19141;48.980;8.410;2022-11-15T10:44:41;4.05;;;2.70;;
32788;SDS011;19141;48.980;8.410;2022-11-15T10:47:29;3.72;;;2.70;;
32788;SDS011;19141;48.980;8.410;2022-11-15T10:50:56;6.82;;;3.17;;
32788;SDS011;19141;48.980;8.410;2022-11-15T10:52:55;4.25;;;2.83;;
32788;SDS011;19141;48.980;8.410;2022-11-15T10:55:22;4.63;;;3.17;;
32788;SDS011;19141;48.980;8.410;2022-11-15T10:57:54;5.63;;;3.35;;
32788;SDS011;19141;48.980;8.410;2022-11-15T11:00:29;6.22;;;3.00;;
32788;SDS011;19141;48.980;8.410;2022-11-15T11:05:36;5.25;;;3.15;;
32788;SDS011;19141;48.980;8.410;2022-11-15T11:10:30;4.63;;;2.90;;
32788;SDS011;19141;48.980;8.410;2022-11-15T11:18:48;5.13;;;2.88;;
32788;SDS011;19141;48.980;8.410;2022-11-15T11:21:22;5.05;;;2.80;;
32788;SDS011;19141;48.980;8.410;2022-11-15T11:24:21;6.60;;;3.38;;
32788;SDS011;19141;48.980;8.410;2022-11-15T11:29:44;6.30;;;3.05;;
32788;SDS011;19141;48.980;8.410;2022-11-15T11:35:13;3.58;;;2.85;;
32788;SDS011;19141;48.980;8.410;2022-11-15T11:43:03;4.38;;;2.45;;
32788;SDS011;19141;48.980;8.410;2022-11-15T11:50:51;3.60;;;2.40;;
32788;SDS011;19141;48.980;8.410;2022-11-15T11:53:25;8.45;;;3.20;;
32788;SDS011;19141;48.980;8.410;2022-11-15T11:55:57;4.18;;;2.85;;
32788;SDS011;19141;48.980;8.410;2022-11-15T11:58:34;5.53;;;2.08;;
32788;SDS011;19141;48.980;8.410;2022-11-15T12:03:38;3.97;;;2.20;;
32788;SDS011;19141;48.980;8.410;2022-11-15T12:06:33;3.65;;;2.30;;
32788;SDS011;19141;48.980;8.410;2022-11-15T12:09:20;5.03;;;2.40;;
32788;SDS011;19141;48.980;8.410;2022-11-15T12:15:03;4.53;;;2.42;;
32788;SDS011;19141;48.980;8.410;2022-11-15T12:17:38;4.43;;;2.40;;
32788;SDS011;19141;48.980;8.410;2022-11-15T12:20:19;4.00;;;2.50;;
32788;SDS011;19141;48.980;8.410;2022-11-15T12:22:57;2.90;;;2.25;;
32788;SDS011;19141;48.980;8.410;2022-11-15T12:25:44;3.13;;;2.58;;
32788;SDS011;19141;48.980;8.410;2022-11-15T12:31:23;5.55;;;2.75;;
32788;SDS011;19141;48.980;8.410;2022-11-15T12:34:12;4.38;;;2.58;;
32788;SDS011;19141;48.980;8.410;2022-11-15T12:36:59;4.32;;;2.30;;
32788;SDS011;19141;48.980;8.410;2022-11-15T12:40:03;4.32;;;2.17;;
32788;SDS011;19141;48.980;8.410;2022-11-15T12:42:36;3.53;;;2.40;;
32788;SDS011;19141;48.980;8.410;2022-11-15T12:47:52;2.83;;;2.33;;
32788;SDS011;19141;48.980;8.410;2022-11-15T12:50:47;4.90;;;2.42;;
32788;SDS011;19141;48.980;8.410;2022-11-15T13:01:07;3.15;;;2.33;;
32788;SDS011;19141;48.980;8.410;2022-11-15T13:03:33;1.90;;;1.60;;
32788;SDS011;19141;48.980;8.410;2022-11-15T13:06:00;4.38;;;2.05;;
32788;SDS011;19141;48.980;8.410;2022-11-15T13:08:44;4.10;;;2.38;;
32788;SDS011;19141;48.980;8.410;2022-11-15T13:17:12;3.08;;;2.20;;
32788;SDS011;19141;48.980;8.410;2022-11-15T13:19:41;4.55;;;2.42;;
32788;SDS011;19141;48.980;8.410;2022-11-15T13:22:11;3.53;;;1.85;;
32788;SDS011;19141;48.980;8.410;2022-11-15T13:24:55;4.35;;;2.25;;
32788;SDS011;19141;48.980;8.410;2022-11-15T13:27:21;4.35;;;2.03;;
32788;SDS011;19141;48.980;8.410;2022-11-15T13:29:47;3.95;;;2.38;;
32788;SDS011;19141;48.980;8.410;2022-11-15T13:32:13;2.90;;;2.05;;
32788;SDS011;19141;48.980;8.410;2022-11-15T13:34:47;3.80;;;2.60;;
32788;SDS011;19141;48.980;8.410;2022-11-15T13:39:45;3.22;;;1.95;;
32788;SDS011;19141;48.980;8.410;2022-11-15T13:42:14;3.55;;;2.10;;
32788;SDS011;19141;48.980;8.410;2022-11-15T13:44:54;2.40;;;1.73;;
32788;SDS011;19141;48.980;8.410;2022-11-15T13:47:20;1.58;;;1.30;;
32788;SDS011;19141;48.980;8.410;2022-11-15T13:49:46;2.55;;;1.65;;
32788;SDS011;19141;48.980;8.410;2022-11-15T13:52:15;3.63;;;1.73;;
32788;SDS011;19141;48.980;8.410;2022-11-15T13:54:43;2.72;;;1.25;;
32788;SDS011;19141;48.980;8.410;2022-11-15T13:59:57;2.45;;;1.73;;
32788;SDS011;19141;48.980;8.410;2022-11-15T14:02:30;4.30;;;1.90;;
32788;SDS011;19141;48.980;8.410;2022-11-15T14:07:25;3.70;;;1.58;;
32788;SDS011;19141;48.980;8.410;2022-11-15T14:09:55;1.98;;;1.70;;
32788;SDS011;19141;48.980;8.410;2022-11-15T14:12:23;2.08;;;1.58;;
32788;SDS011;19141;48.980;8.410;2022-11-15T14:14:57;3.38;;;1.67;;
32788;SDS011;19141;48.980;8.410;2022-11-15T14:19:55;3.33;;;1.80;;
32788;SDS011;19141;48.980;8.410;2022-11-15T14:22:25;2.60;;;1.70;;
32788;SDS011;19141;48.980;8.410;2022-11-15T14:30:44;2.45;;;1.65;;
32788;SDS011;19141;48.980;8.410;2022-11-15T14:35:59;2.97;;;1.73;;
32788;SDS011;19141;48.980;8.410;2022-11-15T14:38:31;3.40;;;1.92;;
32788;SDS011;19141;48.980;8.410;2022-11-15T14:40:56;4.03;;;2.03;;
32788;SDS011;19141;48.980;8.410;2022-11-15T14:43:22;2.10;;;1.63;;
32788;SDS011;19141;48.980;8.410;2022-11-15T14:45:47;3.60;;;2.50;;
32788;SDS011;19141;48.980;8.410;2022-11-15T14:48:12;2.88;;;1.90;;
32788;SDS011;19141;48.980;8.410;2022-11-15T14:50:38;4.00;;;2.00;;
32788;SDS011;19141;48.980;8.410;2022-11-15T14:53:04;2.83;;;1.63;;
32788;SDS011;19141;48.980;8.410;2022-11-15T14:55:31;4.00;;;2.17;;
32788;SDS011;19141;48.980;8.410;2022-11-15T14:58:04;4.30;;;1.80;;
32788;SDS011;19141;48.980;8.410;2022-11-15T15:00:33;7.15;;;2.60;;
32788;SDS011;19141;48.980;8.410;2022-11-15T15:02:59;4.13;;;2.00;;
32788;SDS011;19141;48.980;8.410;2022-11-15T15:05:27;3.35;;;1.70;;
32788;SDS011;19141;48.980;8.410;2022-11-15T15:07:57;2.65;;;2.10;;
32788;SDS011;19141;48.980;8.410;2022-11-15T15:10:30;3.38;;;1.98;;
32788;SDS011;19141;48.980;8.410;2022-11-15T15:12:57;5.88;;;2.45;;
32788;SDS011;19141;48.980;8.410;2022-11-15T15:15:27;3.17;;;2.08;;
32788;SDS011;19141;48.980;8.410;2022-11-15T15:17:57;2.65;;;1.83;;
32788;SDS011;19141;48.980;8.410;2022-11-15T15:20:22;4.32;;;2.20;;
32788;SDS011;19141;48.980;8.410;2022-11-15T15:22:48;3.20;;;2.08;;
32788;SDS011;19141;48.980;8.410;2022-11-15T15:25:27;3.45;;;2.13;;
32788;SDS011;19141;48.980;8.410;2022-11-15T15:27:54;2.53;;;1.90;;
32788;SDS011;19141;48.980;8.410;2022-11-15T15:30:20;3.10;;;1.95;;
32788;SDS011;19141;48.980;8.410;2022-11-15T15:32:47;3.20;;;2.13;;
32788;SDS011;19141;48.980;8.410;2022-11-15T15:35:13;6.78;;;3.92;;
32788;SDS011;19141;48.980;8.410;2022-11-15T15:37:40;11.10;;;5.63;;
32788;SDS011;19141;48.980;8.410;2022-11-15T15:40:10;14.80;;;7.93;;
32788;SDS011;19141;48.980;8.410;2022-11-15T15:42:47;11.20;;;5.40;;
32788;SDS011;19141;48.980;8.410;2022-11-15T15:45:14;4.88;;;2.95;;
32788;SDS011;19141;48.980;8.410;2022-11-15T15:47:40;5.53;;;2.47;;
32788;SDS011;19141;48.980;8.410;2022-11-15T15:50:26;4.65;;;2.60;;
32788;SDS011;19141;48.980;8.410;2022-11-15T15:52:54;3.00;;;2.05;;
32788;SDS011;19141;48.980;8.410;2022-11-15T15:55:21;4.15;;;2.45;;
32788;SDS011;19141;48.980;8.410;2022-11-15T15:57:47;7.22;;;3.00;;
32788;SDS011;19141;48.980;8.410;2022-11-15T16:00:13;3.65;;;2.58;;
32788;SDS011;19141;48.980;8.410;2022-11-15T16:02:39;5.25;;;2.53;;
32788;SDS011;19141;48.980;8.410;2022-11-15T16:05:05;4.57;;;2.78;;
32788;SDS011;19141;48.980;8.410;2022-11-15T16:07:31;3.95;;;2.80;;
32788;SDS011;19141;48.980;8.410;2022-11-15T16:09:57;5.20;;;2.80;;
32788;SDS011;19141;48.980;8.410;2022-11-15T16:12:27;4.68;;;2.92;;
32788;SDS011;19141;48.980;8.410;2022-11-15T16:14:54;5.40;;;2.45;;
32788;SDS011;19141;48.980;8.410;2022-11-15T16:17:20;4.50;;;2.65;;
32788;SDS011;19141;48.980;8.410;2022-11-15T16:19:47;4.00;;;2.53;;
32788;SDS011;19141;48.980;8.410;2022-11-15T16:22:13;5.50;;;2.78;;
32788;SDS011;19141;48.980;8.410;2022-11-15T16:24:38;5.20;;;2.72;;
32788;SDS011;19141;48.980;8.410;2022-11-15T16:27:04;3.72;;;2.25;;
32788;SDS011;19141;48.980;8.410;2022-11-15T16:29:29;3.28;;;2.30;;
32788;SDS011;19141;48.980;8.410;2022-11-15T16:31:55;4.25;;;2.10;;
32788;SDS011;19141;48.980;8.410;2022-11-15T16:34:21;3.30;;;2.13;;
32788;SDS011;19141;48.980;8.410;2022-11-15T16:36:46;5.32;;;2.60;;
32788;SDS011;19141;48.980;8.410;2022-11-15T16:39:12;3.95;;;2.42;;
32788;SDS011;19141;48.980;8.410;2022-11-15T16:41:38;3.58;;;3.05;;
32788;SDS011;19141;48.980;8.410;2022-11-15T16:44:04;4.50;;;2.58;;
32788;SDS011;19141;48.980;8.410;2022-11-15T16:46:30;3.47;;;2.63;;
32788;SDS011;19141;48.980;8.410;2022-11-15T16:48:55;4.40;;;2.65;;
32788;SDS011;19141;48.980;8.410;2022-11-15T16:51:21;2.60;;;1.98;;
32788;SDS011;19141;48.980;8.410;2022-11-15T16:53:48;3.25;;;1.90;;
32788;SDS011;19141;48.980;8.410;2022-11-15T16:56:17;5.40;;;1.83;;
32788;SDS011;19141;48.980;8.410;2022-11-15T16:58:43;4.20;;;2.63;;
32788;SDS011;19141;48.980;8.410;2022-11-15T17:01:10;2.92;;;2.05;;
32788;SDS011;19141;48.980;8.410;2022-11-15T17:03:41;2.90;;;1.63;;
32788;SDS011;19141;48.980;8.410;2022-11-15T17:06:07;3.13;;;2.08;;
32788;SDS011;19141;48.980;8.410;2022-11-15T17:08:34;4.13;;;2.95;;
32788;SDS011;19141;48.980;8.410;2022-11-15T17:10:59;3.20;;;1.83;;
32788;SDS011;19141;48.980;8.410;2022-11-15T17:13:24;2.92;;;1.73;;
32788;SDS011;19141;48.980;8.410;2022-11-15T17:15:50;1.60;;;1.20;;
32788;SDS011;19141;48.980;8.410;2022-11-15T17:18:27;3.65;;;2.03;;
32788;SDS011;19141;48.980;8.410;2022-11-15T17:20:53;3.45;;;1.48;;
32788;SDS011;19141;48.980;8.410;2022-11-15T17:23:18;3.08;;;1.75;;
32788;SDS011;19141;48.980;8.410;2022-11-15T17:25:43;2.45;;;1.70;;
32788;SDS011;19141;48.980;8.410;2022-11-15T17:28:09;4.30;;;1.92;;
32788;SDS011;19141;48.980;8.410;2022-11-15T17:30:35;4.05;;;2.25;;
32788;SDS011;19141;48.980;8.410;2022-11-15T17:33:00;3.17;;;1.80;;
32788;SDS011;19141;48.980;8.410;2022-11-15T17:35:25;2.03;;;1.67;;
32788;SDS011;19141;48.980;8.410;2022-11-15T17:37:51;4.25;;;2.40;;
32788;SDS011;19141;48.980;8.410;2022-11-15T17:40:17;6.55;;;3.65;;
32788;SDS011;19141;48.980;8.410;2022-11-15T17:42:42;2.38;;;1.90;;
32788;SDS011;19141;48.980;8.410;2022-11-15T17:45:09;6.60;;;2.00;;
32788;SDS011;19141;48.980;8.410;2022-11-15T17:47:35;3.53;;;2.40;;
32788;SDS011;19141;48.980;8.410;2022-11-15T17:50:00;4.07;;;2.58;;
32788;SDS011;19141;48.980;8.410;2022-11-15T17:52:26;5.13;;;1.90;;
32788;SDS011;19141;48.980;8.410;2022-11-15T17:54:51;3.40;;;2.13;;
32788;SDS011;19141;48.980;8.410;2022-11-15T17:57:16;2.85;;;1.67;;
32788;SDS011;19141;48.980;8.410;2022-11-15T17:59:42;5.05;;;1.77;;
32788;SDS011;19141;48.980;8.410;2022-11-15T18:02:08;2.95;;;2.10;;
32788;SDS011;19141;48.980;8.410;2022-11-15T18:04:34;5.07;;;3.00;;
32788;SDS011;19141;48.980;8.410;2022-11-15T18:06:59;6.70;;;2.80;;
32788;SDS011;19141;48.980;8.410;2022-11-15T18:09:25;5.35;;;3.03;;
32788;SDS011;19141;48.980;8.410;2022-11-15T18:11:51;7.38;;;3.28;;
32788;SDS011;19141;48.980;8.410;2022-11-15T18:14:18;4.18;;;2.85;;
32788;SDS011;19141;48.980;8.410;2022-11-15T18:16:44;6.13;;;3.20;;
32788;SDS011;19141;48.980;8.410;2022-11-15T18:19:09;8.30;;;4.50;;
32788;SDS011;19141;48.980;8.410;2022-11-15T18:21:38;8.68;;;4.93;;
32788;SDS011;19141;48.980;8.410;2022-11-15T18:24:21;5.55;;;3.03;;
32788;SDS011;19141;48.980;8.410;2022-11-15T18:26:51;4.70;;;2.92;;
32788;SDS011;19141;48.980;8.410;2022-11-15T18:29:17;9.93;;;5.38;;
32788;SDS011;19141;48.980;8.410;2022-11-15T18:31:44;8.30;;;4.47;;
32788;SDS011;19141;48.980;8.410;2022-11-15T18:34:09;4.75;;;3.60;;
32788;SDS011;19141;48.980;8.410;2022-11-15T18:36:35;7.75;;;4.65;;
32788;SDS011;19141;48.980;8.410;2022-11-15T18:39:01;11.85;;;6.93;;
32788;SDS011;19141;48.980;8.410;2022-11-15T18:43:59;6.00;;;3.85;;
32788;SDS011;19141;48.980;8.410;2022-11-15T18:46:27;5.30;;;2.75;;
32788;SDS011;19141;48.980;8.410;2022-11-15T18:48:54;6.95;;;3.53;;
32788;SDS011;19141;48.980;8.410;2022-11-15T18:51:21;5.18;;;3.13;;
32788;SDS011;19141;48.980;8.410;2022-11-15T18:53:48;6.53;;;3.42;;
32788;SDS011;19141;48.980;8.410;2022-11-15T18:56:17;4.45;;;3.13;;
32788;SDS011;19141;48.980;8.410;2022-11-15T18:58:45;4.35;;;3.17;;
32788;SDS011;19141;48.980;8.410;2022-11-15T19:01:19;5.63;;;2.95;;
32788;SDS011;19141;48.980;8.410;2022-11-15T19:03:48;6.55;;;4.13;;
32788;SDS011;19141;48.980;8.410;2022-11-15T19:06:17;6.72;;;3.65;;
32788;SDS011;19141;48.980;8.410;2022-11-15T19:08:44;6.15;;;3.60;;
32788;SDS011;19141;48.980;8.410;2022-11-15T19:11:12;9.70;;;4.85;;
32788;SDS011;19141;48.980;8.410;2022-11-15T19:16:04;7.75;;;4.07;;
32788;SDS011;19141;48.980;8.410;2022-11-15T19:18:31;9.15;;;4.60;;
32788;SDS011;19141;48.980;8.410;2022-11-15T19:21:04;6.28;;;4.70;;
32788;SDS011;19141;48.980;8.410;2022-11-15T19:23:34;8.20;;;4.80;;
32788;SDS011;19141;48.980;8.410;2022-11-15T19:26:01;8.25;;;4.70;;
32788;SDS011;19141;48.980;8.410;2022-11-15T19:28:28;8.70;;;4.43;;
32788;SDS011;19141;48.980;8.410;2022-11-15T19:31:01;6.28;;;4.03;;
32788;SDS011;19141;48.980;8.410;2022-11-15T19:33:27;6.65;;;4.57;;
32788;SDS011;19141;48.980;8.410;2022-11-15T19:35:58;5.45;;;4.05;;
32788;SDS011;19141;48.980;8.410;2022-11-15T19:38:31;6.65;;;4.13;;
32788;SDS011;19141;48.980;8.410;2022-11-15T19:41:02;7.43;;;4.68;;
32788;SDS011;19141;48.980;8.410;2022-11-15T19:43:29;7.15;;;4.30;;
32788;SDS011;19141;48.980;8.410;2022-11-15T19:45:55;10.57;;;5.03;;
32788;SDS011;19141;48.980;8.410;2022-11-15T19:48:23;8.07;;;4.70;;
32788;SDS011;19141;48.980;8.410;2022-11-15T19:50:49;7.32;;;4.50;;
32788;SDS011;19141;48.980;8.410;2022-11-15T19:53:15;8.30;;;5.15;;
32788;SDS011;19141;48.980;8.410;2022-11-15T19:55:41;6.30;;;4.88;;
32788;SDS011;19141;48.980;8.410;2022-11-15T19:58:17;5.47;;;4.28;;
32788;SDS011;19141;48.980;8.410;2022-11-15T20:00:42;9.43;;;6.75;;
32788;SDS011;19141;48.980;8.410;2022-11-15T20:03:08;7.70;;;5.35;;
32788;SDS011;19141;48.980;8.410;2022-11-15T20:05:33;7.72;;;5.22;;
32788;SDS011;19141;48.980;8.410;2022-11-15T20:07:58;8.13;;;4.85;;
32788;SDS011;19141;48.980;8.410;2022-11-15T20:10:24;8.48;;;5.32;;
32788;SDS011;19141;48.980;8.410;2022-11-15T20:12:49;7.88;;;5.18;;
32788;SDS011;19141;48.980;8.410;2022-11-15T20:15:15;6.45;;;4.95;;
32788;SDS011;19141;48.980;8.410;2022-11-15T20:17:40;7.78;;;5.22;;
32788;SDS011;19141;48.980;8.410;2022-11-15T20:20:06;9.10;;;3.90;;
32788;SDS011;19141;48.980;8.410;2022-11-15T20:22:32;7.78;;;4.40;;
32788;SDS011;19141;48.980;8.410;2022-11-15T20:24:57;6.63;;;4.30;;
32788;SDS011;19141;48.980;8.410;2022-11-15T20:27:23;7.53;;;4.20;;
32788;SDS011;19141;48.980;8.410;2022-11-15T20:29:48;6.45;;;3.97;;
32788;SDS011;19141;48.980;8.410;2022-11-15T20:32:15;6.65;;;4.15;;
32788;SDS011;19141;48.980;8.410;2022-11-15T20:34:41;5.55;;;4.03;;
32788;SDS011;19141;48.980;8.410;2022-11-15T20:37:06;4.70;;;3.55;;
32788;SDS011;19141;48.980;8.410;2022-11-15T20:39:32;8.18;;;5.03;;
32788;SDS011;19141;48.980;8.410;2022-11-15T20:41:58;6.85;;;4.53;;
32788;SDS011;19141;48.980;8.410;2022-11-15T20:44:24;8.25;;;5.10;;
32788;SDS011;19141;48.980;8.410;2022-11-15T20:46:49;7.85;;;4.88;;
32788;SDS011;19141;48.980;8.410;2022-11-15T20:49:15;8.02;;;5.35;;
32788;SDS011;19141;48.980;8.410;2022-11-15T20:51:40;7.50;;;5.45;;
32788;SDS011;19141;48.980;8.410;2022-11-15T20:54:05;11.13;;;5.18;;
32788;SDS011;19141;48.980;8.410;2022-11-15T20:56:31;9.13;;;5.80;;
32788;SDS011;19141;48.980;8.410;2022-11-15T20:58:56;8.30;;;4.90;;
32788;SDS011;19141;48.980;8.410;2022-11-15T21:01:22;6.45;;;4.72;;
32788;SDS011;19141;48.980;8.410;2022-11-15T21:03:49;7.63;;;4.57;;
32788;SDS011;19141;48.980;8.410;2022-11-15T21:06:15;8.32;;;5.18;;
32788;SDS011;19141;48.980;8.410;2022-11-15T21:08:44;6.85;;;4.68;;
32788;SDS011;19141;48.980;8.410;2022-11-15T21:11:29;6.28;;;4.25;;
32788;SDS011;19141;48.980;8.410;2022-11-15T21:14:13;7.63;;;4.88;;
32788;SDS011;19141;48.980;8.410;2022-11-15T21:16:38;9.00;;;5.38;;
32788;SDS011;19141;48.980;8.410;2022-11-15T21:19:04;8.05;;;6.00;;
32788;SDS011;19141;48.980;8.410;2022-11-15T21:21:30;12.02;;;5.93;;
32788;SDS011;19141;48.980;8.410;2022-11-15T21:23:55;8.13;;;6.20;;
32788;SDS011;19141;48.980;8.410;2022-11-15T21:26:21;8.13;;;5.53;;
32788;SDS011;19141;48.980;8.410;2022-11-15T21:28:46;10.07;;;5.28;;
32788;SDS011;19141;48.980;8.410;2022-11-15T21:31:11;9.07;;;5.35;;
32788;SDS011;19141;48.980;8.410;2022-11-15T21:33:37;10.57;;;5.25;;
32788;SDS011;19141;48.980;8.410;2022-11-15T21:36:02;8.48;;;5.03;;
32788;SDS011;19141;48.980;8.410;2022-11-15T21:38:28;7.82;;;5.20;;
32788;SDS011;19141;48.980;8.410;2022-11-15T21:40:53;9.82;;;4.88;;
32788;SDS011;19141;48.980;8.410;2022-11-15T21:43:19;8.02;;;4.72;;
32788;SDS011;19141;48.980;8.410;2022-11-15T21:45:58;11.32;;;4.63;;
32788;SDS011;19141;48.980;8.410;2022-11-15T21:48:25;7.50;;;5.05;;
32788;SDS011;19141;48.980;8.410;2022-11-15T21:50:54;9.52;;;4.75;;
32788;SDS011;19141;48.980;8.410;2022-11-15T21:53:20;6.72;;;4.68;;
32788;SDS011;19141;48.980;8.410;2022-11-15T21:55:46;9.90;;;6.55;;
32788;SDS011;19141;48.980;8.410;2022-11-15T21:58:11;9.88;;;5.80;;
32788;SDS011;19141;48.980;8.410;2022-11-15T22:00:37;14.68;;;5.72;;
32788;SDS011;19141;48.980;8.410;2022-11-15T22:03:20;9.68;;;6.22;;
32788;SDS011;19141;48.980;8.410;2022-11-15T22:05:46;10.35;;;6.32;;
32788;SDS011;19141;48.980;8.410;2022-11-15T22:08:11;8.73;;;5.70;;
32788;SDS011;19141;48.980;8.410;2022-11-15T22:10:37;8.38;;;5.40;;
32788;SDS011;19141;48.980;8.410;2022-11-15T22:13:02;10.95;;;6.15;;